KEAU/EAU METAR and TAF weather

Enter ICAO airport designator
Station Type Date Time Source
KEAU METAR 2019/08/19 22:56 UTC NOAA

KEAU 192256Z 22005KT 10SM CLR 24/13 A2999 RMK AO2 SLP155 T02440128


Station Type Date Time Source
KEAU Decoded METAR 2019/08/19 22:56 UTC NOAA

EAU CLAIRE CHIPPEWA VALLEY, WI, United States (KEAU) 44-52N 091-29W
Aug 19, 2019 - 06:56 PM EDT / 2019.08.19 2256 UTC
Wind: from the SW (220 degrees) at 6 MPH (5 KT):0
Visibility: 10 mile(s):0
Sky conditions: clear
Temperature: 75.9 F (24.4 C)
Dew Point: 55.0 F (12.8 C)
Relative Humidity: 48%
Pressure (altimeter): 29.99 in. Hg (1015 hPa)
ob: KEAU 192256Z 22005KT 10SM CLR 24/13 A2999 RMK AO2 SLP155 T02440128
cycle: 23

Station Type Date Time Source
KEAU TAF 2019/08/19 18:42 UTC NOAA

TAF KEAU 191739Z 1918/2018 25007KT P6SM SKC
FM200100 VRB02KT P6SM FEW250
FM201200 15004KT P6SM OVC100
FM201600 17007KT P6SM OVC025

Example: see airport list